RYR9LF EPGD-EPKK
Flight info
| Callsign | RYR9LF |
|---|---|
| Flight time | 0h 48m |
| Altitude | 29000 |
| Route | IRLUN DCT GRUDA DCT KUKAM |
| Aircraft | B738/M-SDE2E3FGHIRWXY/LB1 |
Departure
| Time | 2026-04-30 20:09 |
|---|---|
| Airport | Gdańsk Lech Wałęsa Airport (EPGD) |
Arrival
| Time | 2026-04-30 20:57 |
|---|---|
| Airport | Kraków John Paul II International Airport (EPKK) |
| Time | Latitude | Longitude | Altitude | Speed | Heading |
|---|---|---|---|---|---|
| 2026-04-30 19:16 | 54.38158 | 18.46442 | 469 ft | 0 kts | 23° |
| 2026-04-30 19:52 | 54.38143 | 18.46431 | 459 ft | 4 kts | 29° |
| 2026-04-30 19:52 | 54.38124 | 18.46404 | 456 ft | 4 kts | 73° |
| 2026-04-30 19:52 | 54.38124 | 18.46383 | 455 ft | 0 kts | 113° |
| 2026-04-30 20:00 | 54.38124 | 18.46384 | 459 ft | 1 kts | 113° |
| 2026-04-30 20:01 | 54.38101 | 18.46476 | 459 ft | 10 kts | 113° |
| 2026-04-30 20:01 | 54.38061 | 18.46612 | 459 ft | 9 kts | 139° |
| 2026-04-30 20:01 | 54.38037 | 18.46614 | 459 ft | 6 kts | 200° |
| 2026-04-30 20:02 | 54.37934 | 18.46632 | 458 ft | 8 kts | 122° |
| 2026-04-30 20:02 | 54.37898 | 18.46778 | 458 ft | 17 kts | 113° |
| 2026-04-30 20:03 | 54.37809 | 18.47137 | 459 ft | 15 kts | 113° |
| 2026-04-30 20:03 | 54.37769 | 18.47296 | 457 ft | 14 kts | 113° |
| 2026-04-30 20:03 | 54.37734 | 18.47435 | 460 ft | 11 kts | 113° |
| 2026-04-30 20:03 | 54.37706 | 18.47548 | 462 ft | 11 kts | 113° |
| 2026-04-30 20:04 | 54.37659 | 18.47738 | 463 ft | 20 kts | 113° |
| 2026-04-30 20:04 | 54.37609 | 18.47942 | 470 ft | 17 kts | 113° |
| 2026-04-30 20:04 | 54.37569 | 18.48104 | 472 ft | 13 kts | 113° |
| 2026-04-30 20:05 | 54.37492 | 18.48416 | 481 ft | 17 kts | 113° |
| 2026-04-30 20:05 | 54.37451 | 18.48578 | 482 ft | 12 kts | 112° |
| 2026-04-30 20:05 | 54.37387 | 18.48840 | 485 ft | 17 kts | 112° |
| 2026-04-30 20:06 | 54.37338 | 18.49036 | 490 ft | 17 kts | 113° |
| 2026-04-30 20:06 | 54.37293 | 18.49216 | 491 ft | 15 kts | 113° |
| 2026-04-30 20:06 | 54.37243 | 18.49274 | 488 ft | 5 kts | 186° |
| 2026-04-30 20:06 | 54.37214 | 18.49258 | 495 ft | 0 kts | 208° |
| 2026-04-30 20:07 | 54.37177 | 18.49216 | 492 ft | 14 kts | 219° |
| 2026-04-30 20:08 | 54.37169 | 18.48998 | 492 ft | 19 kts | 293° |
| 2026-04-30 20:08 | 54.37181 | 18.48950 | 490 ft | 7 kts | 293° |
| 2026-04-30 20:08 | 54.37279 | 18.48559 | 488 ft | 76 kts | 293° |
| 2026-04-30 20:08 | 54.37596 | 18.47279 | 481 ft | 150 kts | 293° |
| 2026-04-30 20:09 | 54.38032 | 18.45580 | 1316 ft | 154 kts | 295° |
| 2026-04-30 20:09 | 54.38457 | 18.43903 | 2339 ft | 156 kts | 297° |
| 2026-04-30 20:09 | 54.39439 | 18.39928 | 3213 ft | 210 kts | 296° |
| 2026-04-30 20:10 | 54.40607 | 18.35077 | 4382 ft | 224 kts | 296° |
| 2026-04-30 20:10 | 54.41206 | 18.32601 | 5134 ft | 227 kts | 297° |
| 2026-04-30 20:10 | 54.41818 | 18.30080 | 5773 ft | 228 kts | 297° |
| 2026-04-30 20:11 | 54.43050 | 18.24925 | 7293 ft | 240 kts | 290° |
| 2026-04-30 20:11 | 54.43118 | 18.22008 | 8074 ft | 254 kts | 261° |
| 2026-04-30 20:11 | 54.42256 | 18.19303 | 8785 ft | 269 kts | 224° |
| 2026-04-30 20:12 | 54.38865 | 18.16270 | 10242 ft | 283 kts | 201° |
| 2026-04-30 20:12 | 54.36989 | 18.15148 | 10919 ft | 287 kts | 187° |
| 2026-04-30 20:12 | 54.35011 | 18.15253 | 11549 ft | 288 kts | 163° |
| 2026-04-30 20:13 | 54.33009 | 18.16177 | 11809 ft | 310 kts | 157° |
| 2026-04-30 20:13 | 54.30887 | 18.17426 | 12023 ft | 335 kts | 155° |
| 2026-04-30 20:13 | 54.28623 | 18.18828 | 12279 ft | 356 kts | 155° |
| 2026-04-30 20:13 | 54.26257 | 18.20288 | 12883 ft | 365 kts | 155° |
| 2026-04-30 20:14 | 54.23910 | 18.21712 | 13670 ft | 369 kts | 155° |
| 2026-04-30 20:14 | 54.21480 | 18.23164 | 14452 ft | 372 kts | 155° |
| 2026-04-30 20:14 | 54.19016 | 18.24621 | 15133 ft | 377 kts | 155° |
| 2026-04-30 20:14 | 54.16524 | 18.26083 | 15784 ft | 382 kts | 155° |
| 2026-04-30 20:15 | 54.13993 | 18.27557 | 16458 ft | 386 kts | 155° |
| 2026-04-30 20:15 | 54.11434 | 18.29042 | 17137 ft | 391 kts | 155° |
| 2026-04-30 20:15 | 54.08843 | 18.30542 | 17792 ft | 395 kts | 155° |
| 2026-04-30 20:15 | 54.06224 | 18.32056 | 18442 ft | 400 kts | 155° |
| 2026-04-30 20:16 | 54.03571 | 18.33588 | 19035 ft | 405 kts | 155° |
| 2026-04-30 20:16 | 54.00894 | 18.35131 | 19624 ft | 408 kts | 155° |
| 2026-04-30 20:16 | 53.98194 | 18.36686 | 20217 ft | 411 kts | 155° |
| 2026-04-30 20:16 | 53.95467 | 18.38254 | 20794 ft | 415 kts | 155° |
| 2026-04-30 20:17 | 53.92719 | 18.39833 | 21354 ft | 419 kts | 155° |
| 2026-04-30 20:17 | 53.89942 | 18.41426 | 21913 ft | 423 kts | 155° |
| 2026-04-30 20:17 | 53.87143 | 18.43030 | 22463 ft | 427 kts | 155° |
| 2026-04-30 20:17 | 53.84315 | 18.44648 | 23001 ft | 431 kts | 155° |
| 2026-04-30 20:18 | 53.81465 | 18.46276 | 23534 ft | 434 kts | 155° |
| 2026-04-30 20:18 | 53.78587 | 18.47918 | 24041 ft | 438 kts | 155° |
| 2026-04-30 20:18 | 53.75690 | 18.49569 | 24478 ft | 441 kts | 155° |
| 2026-04-30 20:18 | 53.72769 | 18.51230 | 24918 ft | 444 kts | 155° |
| 2026-04-30 20:19 | 53.69832 | 18.52897 | 25363 ft | 447 kts | 155° |
| 2026-04-30 20:19 | 53.66873 | 18.54575 | 25786 ft | 450 kts | 155° |
| 2026-04-30 20:19 | 53.63896 | 18.56260 | 26252 ft | 451 kts | 155° |
| 2026-04-30 20:19 | 53.60924 | 18.57938 | 26812 ft | 450 kts | 155° |
| 2026-04-30 20:20 | 53.57958 | 18.59609 | 27412 ft | 448 kts | 155° |
| 2026-04-30 20:20 | 53.55006 | 18.61270 | 27972 ft | 447 kts | 155° |
| 2026-04-30 20:20 | 53.52051 | 18.62933 | 28476 ft | 448 kts | 154° |
| 2026-04-30 20:20 | 53.49098 | 18.64592 | 29025 ft | 447 kts | 154° |
| 2026-04-30 20:21 | 53.46154 | 18.66246 | 29395 ft | 449 kts | 154° |
| 2026-04-30 20:21 | 53.40205 | 18.69583 | 29358 ft | 449 kts | 154° |
| 2026-04-30 20:22 | 53.34325 | 18.72859 | 29373 ft | 445 kts | 154° |
| 2026-04-30 20:22 | 53.28475 | 18.76121 | 29374 ft | 447 kts | 154° |
| 2026-04-30 20:23 | 53.22562 | 18.79407 | 29371 ft | 448 kts | 154° |
| 2026-04-30 20:23 | 53.16643 | 18.82684 | 29369 ft | 448 kts | 154° |
| 2026-04-30 20:24 | 53.10726 | 18.85948 | 29368 ft | 447 kts | 154° |
| 2026-04-30 20:24 | 53.04822 | 18.89196 | 29366 ft | 446 kts | 153° |
| 2026-04-30 20:25 | 52.95994 | 18.94037 | 29365 ft | 445 kts | 153° |
| 2026-04-30 20:26 | 52.87192 | 18.98845 | 29367 ft | 444 kts | 153° |
| 2026-04-30 20:26 | 52.78393 | 19.03631 | 29365 ft | 444 kts | 153° |
| 2026-04-30 20:27 | 52.66645 | 19.09989 | 29369 ft | 445 kts | 153° |
| 2026-04-30 20:28 | 52.54877 | 19.16320 | 29367 ft | 445 kts | 153° |
| 2026-04-30 20:30 | 52.40170 | 19.24181 | 29376 ft | 444 kts | 152° |
| 2026-04-30 20:31 | 52.22560 | 19.33523 | 29381 ft | 443 kts | 152° |
| 2026-04-30 20:32 | 52.07876 | 19.41254 | 29383 ft | 443 kts | 152° |
| 2026-04-30 20:33 | 51.99090 | 19.45851 | 29371 ft | 438 kts | 152° |
| 2026-04-30 20:34 | 51.90570 | 19.50278 | 29383 ft | 426 kts | 151° |
| 2026-04-30 20:34 | 51.84910 | 19.53233 | 28941 ft | 425 kts | 152° |
| 2026-04-30 20:35 | 51.82109 | 19.54683 | 28562 ft | 422 kts | 152° |
| 2026-04-30 20:35 | 51.79323 | 19.56123 | 28202 ft | 418 kts | 152° |
| 2026-04-30 20:35 | 51.73766 | 19.58569 | 27579 ft | 416 kts | 159° |
| 2026-04-30 20:36 | 51.70889 | 19.59491 | 27326 ft | 417 kts | 160° |
| 2026-04-30 20:36 | 51.68015 | 19.60370 | 27145 ft | 423 kts | 160° |
| 2026-04-30 20:36 | 51.62276 | 19.62122 | 27026 ft | 423 kts | 160° |
| 2026-04-30 20:37 | 51.59384 | 19.63023 | 26823 ft | 422 kts | 160° |
| 2026-04-30 20:37 | 51.56516 | 19.63924 | 26555 ft | 418 kts | 159° |
| 2026-04-30 20:37 | 51.53640 | 19.64834 | 26297 ft | 414 kts | 159° |
| 2026-04-30 20:37 | 51.50856 | 19.65722 | 26061 ft | 413 kts | 159° |
| 2026-04-30 20:38 | 51.48038 | 19.66625 | 25821 ft | 413 kts | 159° |
| 2026-04-30 20:38 | 51.45222 | 19.67527 | 25577 ft | 412 kts | 160° |
| 2026-04-30 20:38 | 51.42418 | 19.68424 | 25430 ft | 411 kts | 160° |
| 2026-04-30 20:39 | 51.36813 | 19.70212 | 25387 ft | 408 kts | 160° |
| 2026-04-30 20:39 | 51.34030 | 19.71097 | 25390 ft | 408 kts | 160° |
| 2026-04-30 20:39 | 51.31209 | 19.71993 | 25384 ft | 405 kts | 160° |
| 2026-04-30 20:40 | 51.25808 | 19.73696 | 24881 ft | 397 kts | 160° |
| 2026-04-30 20:40 | 51.23051 | 19.74572 | 24464 ft | 398 kts | 160° |
| 2026-04-30 20:40 | 51.20368 | 19.75425 | 24052 ft | 399 kts | 160° |
| 2026-04-30 20:41 | 51.14948 | 19.77136 | 23275 ft | 394 kts | 161° |
| 2026-04-30 20:41 | 51.12269 | 19.77977 | 22921 ft | 390 kts | 161° |
| 2026-04-30 20:41 | 51.09614 | 19.78811 | 22555 ft | 388 kts | 161° |
| 2026-04-30 20:41 | 51.06975 | 19.79639 | 22187 ft | 385 kts | 161° |
| 2026-04-30 20:42 | 51.04354 | 19.80462 | 21831 ft | 383 kts | 161° |
| 2026-04-30 20:42 | 51.01750 | 19.81278 | 21446 ft | 381 kts | 161° |
| 2026-04-30 20:42 | 50.96555 | 19.82908 | 20599 ft | 380 kts | 162° |
| 2026-04-30 20:43 | 50.93956 | 19.83723 | 20108 ft | 382 kts | 162° |
| 2026-04-30 20:43 | 50.91337 | 19.84543 | 19624 ft | 384 kts | 162° |
| 2026-04-30 20:43 | 50.88714 | 19.85362 | 19151 ft | 385 kts | 163° |
| 2026-04-30 20:44 | 50.83551 | 19.86960 | 18332 ft | 368 kts | 163° |
| 2026-04-30 20:44 | 50.81068 | 19.87724 | 17976 ft | 358 kts | 163° |
| 2026-04-30 20:44 | 50.76321 | 19.89190 | 17289 ft | 339 kts | 163° |
| 2026-04-30 20:45 | 50.71638 | 19.90650 | 15921 ft | 345 kts | 164° |
| 2026-04-30 20:45 | 50.69295 | 19.91377 | 15428 ft | 341 kts | 164° |
| 2026-04-30 20:45 | 50.66980 | 19.92092 | 14929 ft | 338 kts | 165° |
| 2026-04-30 20:46 | 50.60896 | 19.93968 | 13483 ft | 332 kts | 165° |
| 2026-04-30 20:46 | 50.58636 | 19.94664 | 12901 ft | 330 kts | 165° |
| 2026-04-30 20:47 | 50.54160 | 19.96039 | 11776 ft | 326 kts | 166° |
| 2026-04-30 20:47 | 50.51225 | 19.96940 | 11045 ft | 323 kts | 166° |
| 2026-04-30 20:48 | 50.47553 | 19.98065 | 10129 ft | 319 kts | 166° |
| 2026-04-30 20:48 | 50.45381 | 19.98729 | 9541 ft | 317 kts | 166° |
| 2026-04-30 20:48 | 50.43225 | 19.99388 | 8954 ft | 315 kts | 166° |
| 2026-04-30 20:48 | 50.41086 | 20.00041 | 8384 ft | 312 kts | 167° |
| 2026-04-30 20:49 | 50.38970 | 20.00686 | 7910 ft | 307 kts | 167° |
| 2026-04-30 20:49 | 50.36933 | 20.01305 | 7797 ft | 290 kts | 167° |
| 2026-04-30 20:49 | 50.34991 | 20.01895 | 7536 ft | 280 kts | 167° |
| 2026-04-30 20:50 | 50.31239 | 20.03038 | 6846 ft | 274 kts | 167° |
| 2026-04-30 20:50 | 50.29376 | 20.03606 | 6470 ft | 272 kts | 167° |
| 2026-04-30 20:50 | 50.27518 | 20.04171 | 6085 ft | 272 kts | 167° |
| 2026-04-30 20:50 | 50.25665 | 20.04734 | 5687 ft | 271 kts | 168° |
| 2026-04-30 20:51 | 50.23821 | 20.05292 | 5276 ft | 269 kts | 168° |
| 2026-04-30 20:51 | 50.20190 | 20.06397 | 4466 ft | 262 kts | 167° |
| 2026-04-30 20:51 | 50.18440 | 20.06972 | 4248 ft | 252 kts | 167° |
| 2026-04-30 20:52 | 50.16766 | 20.07530 | 4117 ft | 240 kts | 167° |
| 2026-04-30 20:52 | 50.15150 | 20.08068 | 4073 ft | 238 kts | 167° |
| 2026-04-30 20:52 | 50.12025 | 20.07606 | 4015 ft | 231 kts | 225° |
| 2026-04-30 20:53 | 50.11281 | 20.05460 | 4020 ft | 228 kts | 262° |
| 2026-04-30 20:53 | 50.11032 | 20.03023 | 4018 ft | 227 kts | 264° |
| 2026-04-30 20:53 | 50.10813 | 20.00592 | 4024 ft | 226 kts | 264° |
| 2026-04-30 20:54 | 50.10228 | 19.96085 | 3794 ft | 195 kts | 261° |
| 2026-04-30 20:54 | 50.09951 | 19.94097 | 3633 ft | 179 kts | 261° |
| 2026-04-30 20:54 | 50.09701 | 19.92313 | 3356 ft | 163 kts | 261° |
| 2026-04-30 20:55 | 50.09234 | 19.88968 | 2755 ft | 160 kts | 261° |
| 2026-04-30 20:55 | 50.08994 | 19.87264 | 2225 ft | 162 kts | 260° |
| 2026-04-30 20:55 | 50.08762 | 19.85542 | 1651 ft | 161 kts | 261° |
| 2026-04-30 20:56 | 50.08316 | 19.82340 | 1111 ft | 144 kts | 258° |
| 2026-04-30 20:56 | 50.08102 | 19.80807 | 933 ft | 147 kts | 257° |
| 2026-04-30 20:56 | 50.07708 | 19.78014 | 797 ft | 89 kts | 257° |
| 2026-04-30 20:57 | 50.07619 | 19.77396 | 799 ft | 28 kts | 257° |
| 2026-04-30 20:57 | 50.07598 | 19.77244 | 801 ft | 13 kts | 257° |
| 2026-04-30 20:57 | 50.07578 | 19.77104 | 802 ft | 18 kts | 258° |
| 2026-04-30 20:58 | 50.07475 | 19.76846 | 800 ft | 11 kts | 169° |
| 2026-04-30 20:58 | 50.07396 | 19.76873 | 799 ft | 11 kts | 168° |
| 2026-04-30 20:58 | 50.07324 | 19.76902 | 799 ft | 9 kts | 151° |
| 2026-04-30 20:58 | 50.07308 | 19.76939 | 799 ft | 3 kts | 104° |
| 2026-04-30 20:59 | 50.07343 | 19.77235 | 799 ft | 16 kts | 76° |
| 2026-04-30 20:59 | 50.07368 | 19.77397 | 799 ft | 15 kts | 78° |
| 2026-04-30 21:00 | 50.07407 | 19.77680 | 799 ft | 12 kts | 78° |
| 2026-04-30 21:00 | 50.07440 | 19.77916 | 799 ft | 10 kts | 78° |
| 2026-04-30 21:01 | 50.07484 | 19.78225 | 799 ft | 21 kts | 77° |
| 2026-04-30 21:01 | 50.07515 | 19.78450 | 799 ft | 21 kts | 77° |
| 2026-04-30 21:01 | 50.07572 | 19.78859 | 799 ft | 18 kts | 78° |
| 2026-04-30 21:02 | 50.07597 | 19.79039 | 799 ft | 16 kts | 77° |
| 2026-04-30 21:02 | 50.07620 | 19.79205 | 799 ft | 15 kts | 79° |
| 2026-04-30 21:02 | 50.07642 | 19.79356 | 799 ft | 14 kts | 77° |
| 2026-04-30 21:02 | 50.07662 | 19.79496 | 799 ft | 13 kts | 77° |
| 2026-04-30 21:03 | 50.07678 | 19.79626 | 799 ft | 12 kts | 79° |
| 2026-04-30 21:03 | 50.07693 | 19.79746 | 799 ft | 11 kts | 76° |
| 2026-04-30 21:03 | 50.07699 | 19.79844 | 799 ft | 6 kts | 107° |
| 2026-04-30 21:03 | 50.07672 | 19.79880 | 799 ft | 12 kts | 154° |
| 2026-04-30 21:04 | 50.07621 | 19.79909 | 799 ft | 2 kts | 125° |
| 2026-04-30 21:04 | 50.07584 | 19.79913 | 799 ft | 17 kts | 183° |
| 2026-04-30 21:04 | 50.07517 | 19.80031 | 799 ft | 6 kts | 77° |
| 2026-04-30 21:05 | 50.07526 | 19.80096 | 799 ft | 6 kts | 77° |
| 2026-04-30 21:05 | 50.07528 | 19.80116 | 799 ft | 3 kts | 85° |
| 2026-04-30 21:05 | 50.07525 | 19.80121 | 799 ft | 0 kts | 123° |
| 2026-04-30 21:05 | 50.07514 | 19.80129 | 799 ft | 2 kts | 161° |
| 2026-04-30 21:06 | 50.07503 | 19.80133 | 799 ft | 1 kts | 167° |
| 2026-04-30 21:06 | 50.07496 | 19.80136 | 799 ft | 1 kts | 167° |
| 2026-04-30 21:06 | 50.07485 | 19.80139 | 799 ft | 2 kts | 167° |
| 2026-04-30 21:06 | 50.07482 | 19.80140 | 799 ft | 0 kts | 167° |